sensor_id;sensor_type;location;lat;lon;timestamp;temperature;humidity
23405;DHT22;11875;49.356;2.718;2023-06-05T00:01:02;19.20;94.20
23405;DHT22;11875;49.356;2.718;2023-06-05T00:03:28;19.20;94.10
23405;DHT22;11875;49.356;2.718;2023-06-05T00:05:55;19.20;94.10
23405;DHT22;11875;49.356;2.718;2023-06-05T00:08:21;19.20;94.10
23405;DHT22;11875;49.356;2.718;2023-06-05T00:10:46;19.10;94.20
23405;DHT22;11875;49.356;2.718;2023-06-05T00:13:12;19.10;94.40
23405;DHT22;11875;49.356;2.718;2023-06-05T00:15:37;19.00;94.40
23405;DHT22;11875;49.356;2.718;2023-06-05T00:18:03;19.00;94.40
23405;DHT22;11875;49.356;2.718;2023-06-05T00:20:33;19.00;94.40
23405;DHT22;11875;49.356;2.718;2023-06-05T00:22:59;19.00;94.40
23405;DHT22;11875;49.356;2.718;2023-06-05T00:25:25;19.10;94.50
23405;DHT22;11875;49.356;2.718;2023-06-05T00:27:50;19.10;94.40
23405;DHT22;11875;49.356;2.718;2023-06-05T00:30:16;19.20;94.60
23405;DHT22;11875;49.356;2.718;2023-06-05T00:32:42;19.10;94.50
23405;DHT22;11875;49.356;2.718;2023-06-05T00:35:08;18.90;94.80
23405;DHT22;11875;49.356;2.718;2023-06-05T00:37:34;18.70;95.00
23405;DHT22;11875;49.356;2.718;2023-06-05T00:40:00;18.50;95.30
23405;DHT22;11875;49.356;2.718;2023-06-05T00:42:26;18.30;95.40
23405;DHT22;11875;49.356;2.718;2023-06-05T00:44:54;18.20;95.70
23405;DHT22;11875;49.356;2.718;2023-06-05T00:47:21;18.10;96.00
23405;DHT22;11875;49.356;2.718;2023-06-05T00:49:48;18.00;96.20
23405;DHT22;11875;49.356;2.718;2023-06-05T00:52:14;17.90;96.20
23405;DHT22;11875;49.356;2.718;2023-06-05T00:54:40;17.90;96.20
23405;DHT22;11875;49.356;2.718;2023-06-05T00:57:06;17.90;96.20
23405;DHT22;11875;49.356;2.718;2023-06-05T00:59:33;17.90;96.30
23405;DHT22;11875;49.356;2.718;2023-06-05T01:02:00;17.90;96.20
23405;DHT22;11875;49.356;2.718;2023-06-05T01:04:28;18.00;96.20
23405;DHT22;11875;49.356;2.718;2023-06-05T01:06:57;18.00;96.20
23405;DHT22;11875;49.356;2.718;2023-06-05T01:09:23;18.00;96.10
23405;DHT22;11875;49.356;2.718;2023-06-05T01:11:58;18.10;96.20
23405;DHT22;11875;49.356;2.718;2023-06-05T01:14:28;18.00;96.20
23405;DHT22;11875;49.356;2.718;2023-06-05T01:16:56;18.10;96.10
23405;DHT22;11875;49.356;2.718;2023-06-05T01:19:26;18.20;96.20
23405;DHT22;11875;49.356;2.718;2023-06-05T01:21:57;18.10;96.10
23405;DHT22;11875;49.356;2.718;2023-06-05T01:24:24;18.10;96.10
23405;DHT22;11875;49.356;2.718;2023-06-05T01:27:23;18.10;96.20
23405;DHT22;11875;49.356;2.718;2023-06-05T01:30:03;18.10;96.30
23405;DHT22;11875;49.356;2.718;2023-06-05T01:35:05;18.00;96.40
23405;DHT22;11875;49.356;2.718;2023-06-05T01:37:33;18.00;96.80
23405;DHT22;11875;49.356;2.718;2023-06-05T01:40:10;18.00;96.50
23405;DHT22;11875;49.356;2.718;2023-06-05T01:42:38;18.10;96.60
23405;DHT22;11875;49.356;2.718;2023-06-05T01:45:05;18.00;96.40
23405;DHT22;11875;49.356;2.718;2023-06-05T01:47:33;17.90;96.50
23405;DHT22;11875;49.356;2.718;2023-06-05T01:50:00;17.90;96.70
23405;DHT22;11875;49.356;2.718;2023-06-05T01:52:25;17.90;96.60
23405;DHT22;11875;49.356;2.718;2023-06-05T01:54:51;17.90;96.80
23405;DHT22;11875;49.356;2.718;2023-06-05T01:57:18;17.90;96.90
23405;DHT22;11875;49.356;2.718;2023-06-05T01:59:43;17.80;96.90
23405;DHT22;11875;49.356;2.718;2023-06-05T02:02:11;17.90;96.90
23405;DHT22;11875;49.356;2.718;2023-06-05T02:04:38;17.90;96.80
23405;DHT22;11875;49.356;2.718;2023-06-05T02:07:04;17.90;96.80
23405;DHT22;11875;49.356;2.718;2023-06-05T02:09:31;17.90;96.80
23405;DHT22;11875;49.356;2.718;2023-06-05T02:11:59;17.80;96.70
23405;DHT22;11875;49.356;2.718;2023-06-05T02:14:31;17.80;96.80
23405;DHT22;11875;49.356;2.718;2023-06-05T02:17:03;17.80;97.10
23405;DHT22;11875;49.356;2.718;2023-06-05T02:19:32;17.70;96.80
23405;DHT22;11875;49.356;2.718;2023-06-05T02:21:58;17.50;97.30
23405;DHT22;11875;49.356;2.718;2023-06-05T02:24:23;17.50;97.40
23405;DHT22;11875;49.356;2.718;2023-06-05T02:26:51;17.50;97.40
23405;DHT22;11875;49.356;2.718;2023-06-05T02:29:16;17.50;97.50
23405;DHT22;11875;49.356;2.718;2023-06-05T02:31:42;17.40;97.60
23405;DHT22;11875;49.356;2.718;2023-06-05T02:34:09;17.40;97.60
23405;DHT22;11875;49.356;2.718;2023-06-05T02:36:35;17.50;97.60
23405;DHT22;11875;49.356;2.718;2023-06-05T02:39:01;17.50;97.70
23405;DHT22;11875;49.356;2.718;2023-06-05T02:41:27;17.40;97.70
23405;DHT22;11875;49.356;2.718;2023-06-05T02:43:53;17.40;98.00
23405;DHT22;11875;49.356;2.718;2023-06-05T02:46:22;17.30;98.00
23405;DHT22;11875;49.356;2.718;2023-06-05T02:48:50;17.20;98.30
23405;DHT22;11875;49.356;2.718;2023-06-05T02:51:16;17.10;98.40
23405;DHT22;11875;49.356;2.718;2023-06-05T02:53:41;17.00;98.60
23405;DHT22;11875;49.356;2.718;2023-06-05T02:56:07;17.00;98.70
23405;DHT22;11875;49.356;2.718;2023-06-05T02:58:33;17.00;98.70
23405;DHT22;11875;49.356;2.718;2023-06-05T03:01:02;16.90;98.70
23405;DHT22;11875;49.356;2.718;2023-06-05T03:03:32;16.90;98.80
23405;DHT22;11875;49.356;2.718;2023-06-05T03:06:02;16.90;98.90
23405;DHT22;11875;49.356;2.718;2023-06-05T03:08:35;17.00;98.90
23405;DHT22;11875;49.356;2.718;2023-06-05T03:11:01;17.10;98.90
23405;DHT22;11875;49.356;2.718;2023-06-05T03:13:27;17.10;98.90
23405;DHT22;11875;49.356;2.718;2023-06-05T03:15:54;17.00;98.90
23405;DHT22;11875;49.356;2.718;2023-06-05T03:18:25;16.90;99.00
23405;DHT22;11875;49.356;2.718;2023-06-05T03:20:52;16.80;99.30
23405;DHT22;11875;49.356;2.718;2023-06-05T03:23:27;16.80;99.50
23405;DHT22;11875;49.356;2.718;2023-06-05T03:25:54;16.70;99.60
23405;DHT22;11875;49.356;2.718;2023-06-05T03:28:21;16.60;99.90
23405;DHT22;11875;49.356;2.718;2023-06-05T03:30:47;16.50;99.90
23405;DHT22;11875;49.356;2.718;2023-06-05T03:33:13;16.40;99.90
23405;DHT22;11875;49.356;2.718;2023-06-05T03:35:40;16.50;99.90
23405;DHT22;11875;49.356;2.718;2023-06-05T03:38:08;16.40;99.90
23405;DHT22;11875;49.356;2.718;2023-06-05T03:40:34;16.50;99.90
23405;DHT22;11875;49.356;2.718;2023-06-05T03:43:00;16.40;99.90
23405;DHT22;11875;49.356;2.718;2023-06-05T03:45:25;16.30;99.90
23405;DHT22;11875;49.356;2.718;2023-06-05T03:47:54;16.20;99.90
23405;DHT22;11875;49.356;2.718;2023-06-05T03:50:25;16.10;99.90
23405;DHT22;11875;49.356;2.718;2023-06-05T03:52:51;16.10;99.90
23405;DHT22;11875;49.356;2.718;2023-06-05T03:55:21;16.10;99.90
23405;DHT22;11875;49.356;2.718;2023-06-05T03:57:47;16.10;99.90
23405;DHT22;11875;49.356;2.718;2023-06-05T04:00:13;16.10;99.90
23405;DHT22;11875;49.356;2.718;2023-06-05T04:02:40;16.00;99.90
23405;DHT22;11875;49.356;2.718;2023-06-05T04:05:06;16.00;99.90
23405;DHT22;11875;49.356;2.718;2023-06-05T04:07:37;16.10;99.90
23405;DHT22;11875;49.356;2.718;2023-06-05T04:10:03;16.10;99.90
23405;DHT22;11875;49.356;2.718;2023-06-05T04:12:28;16.20;99.90
23405;DHT22;11875;49.356;2.718;2023-06-05T04:14:54;16.20;99.90
23405;DHT22;11875;49.356;2.718;2023-06-05T04:17:19;16.10;99.90
23405;DHT22;11875;49.356;2.718;2023-06-05T04:19:45;16.20;99.90
23405;DHT22;11875;49.356;2.718;2023-06-05T04:22:10;16.20;99.90
23405;DHT22;11875;49.356;2.718;2023-06-05T04:24:36;16.10;99.90
23405;DHT22;11875;49.356;2.718;2023-06-05T04:27:04;16.10;99.90
23405;DHT22;11875;49.356;2.718;2023-06-05T04:29:30;16.00;99.90
23405;DHT22;11875;49.356;2.718;2023-06-05T04:31:58;16.10;99.90
23405;DHT22;11875;49.356;2.718;2023-06-05T04:34:23;16.10;99.90
23405;DHT22;11875;49.356;2.718;2023-06-05T04:36:49;16.10;99.90
23405;DHT22;11875;49.356;2.718;2023-06-05T04:39:17;15.90;99.90
23405;DHT22;11875;49.356;2.718;2023-06-05T04:41:44;15.90;99.90
23405;DHT22;11875;49.356;2.718;2023-06-05T04:44:12;15.80;99.90
23405;DHT22;11875;49.356;2.718;2023-06-05T04:46:38;15.90;99.90
23405;DHT22;11875;49.356;2.718;2023-06-05T04:49:06;15.90;99.90
23405;DHT22;11875;49.356;2.718;2023-06-05T04:51:31;15.90;99.90
23405;DHT22;11875;49.356;2.718;2023-06-05T04:53:58;16.10;99.90
23405;DHT22;11875;49.356;2.718;2023-06-05T04:56:25;16.10;99.90
23405;DHT22;11875;49.356;2.718;2023-06-05T04:58:51;16.20;99.90
23405;DHT22;11875;49.356;2.718;2023-06-05T05:01:17;16.30;99.90
23405;DHT22;11875;49.356;2.718;2023-06-05T05:03:44;16.30;99.90
23405;DHT22;11875;49.356;2.718;2023-06-05T05:06:09;16.30;99.90
23405;DHT22;11875;49.356;2.718;2023-06-05T05:08:35;16.40;99.90
23405;DHT22;11875;49.356;2.718;2023-06-05T05:11:02;16.30;99.90
23405;DHT22;11875;49.356;2.718;2023-06-05T05:13:27;16.30;99.90
23405;DHT22;11875;49.356;2.718;2023-06-05T05:15:53;16.30;99.90
23405;DHT22;11875;49.356;2.718;2023-06-05T05:18:19;16.40;99.90
23405;DHT22;11875;49.356;2.718;2023-06-05T05:20:45;16.40;99.90
23405;DHT22;11875;49.356;2.718;2023-06-05T05:23:11;16.40;99.90
23405;DHT22;11875;49.356;2.718;2023-06-05T05:25:38;16.40;99.90
23405;DHT22;11875;49.356;2.718;2023-06-05T05:28:03;16.50;99.90
23405;DHT22;11875;49.356;2.718;2023-06-05T05:30:30;16.50;99.90
23405;DHT22;11875;49.356;2.718;2023-06-05T05:32:55;16.50;99.90
23405;DHT22;11875;49.356;2.718;2023-06-05T05:35:22;16.50;99.90
23405;DHT22;11875;49.356;2.718;2023-06-05T05:37:48;16.50;99.90
23405;DHT22;11875;49.356;2.718;2023-06-05T05:40:13;16.40;99.90
23405;DHT22;11875;49.356;2.718;2023-06-05T05:42:39;16.50;99.90
23405;DHT22;11875;49.356;2.718;2023-06-05T05:45:05;16.50;99.90
23405;DHT22;11875;49.356;2.718;2023-06-05T05:47:31;16.60;99.90
23405;DHT22;11875;49.356;2.718;2023-06-05T05:49:57;16.70;99.90
23405;DHT22;11875;49.356;2.718;2023-06-05T05:52:22;16.70;99.90
23405;DHT22;11875;49.356;2.718;2023-06-05T05:54:48;16.80;99.90
23405;DHT22;11875;49.356;2.718;2023-06-05T05:57:14;16.80;99.90
23405;DHT22;11875;49.356;2.718;2023-06-05T05:59:40;17.00;99.90
23405;DHT22;11875;49.356;2.718;2023-06-05T06:02:07;17.00;99.90
23405;DHT22;11875;49.356;2.718;2023-06-05T06:04:35;17.00;99.90
23405;DHT22;11875;49.356;2.718;2023-06-05T06:07:01;17.00;99.90
23405;DHT22;11875;49.356;2.718;2023-06-05T06:09:28;17.00;99.90
23405;DHT22;11875;49.356;2.718;2023-06-05T06:11:54;17.00;99.90
23405;DHT22;11875;49.356;2.718;2023-06-05T06:14:22;17.00;99.90
23405;DHT22;11875;49.356;2.718;2023-06-05T06:16:48;16.90;99.90
23405;DHT22;11875;49.356;2.718;2023-06-05T06:19:15;16.70;99.90
23405;DHT22;11875;49.356;2.718;2023-06-05T06:21:41;16.80;99.90
23405;DHT22;11875;49.356;2.718;2023-06-05T06:24:08;16.90;99.90
23405;DHT22;11875;49.356;2.718;2023-06-05T06:26:34;16.90;99.90
23405;DHT22;11875;49.356;2.718;2023-06-05T06:29:01;16.80;99.90
23405;DHT22;11875;49.356;2.718;2023-06-05T06:31:27;16.90;99.90
23405;DHT22;11875;49.356;2.718;2023-06-05T06:33:52;17.00;99.90
23405;DHT22;11875;49.356;2.718;2023-06-05T06:36:18;17.20;99.90
23405;DHT22;11875;49.356;2.718;2023-06-05T06:38:44;17.20;99.90
23405;DHT22;11875;49.356;2.718;2023-06-05T06:41:09;17.30;99.90
23405;DHT22;11875;49.356;2.718;2023-06-05T06:43:35;17.40;99.90
23405;DHT22;11875;49.356;2.718;2023-06-05T06:46:01;17.40;99.90
23405;DHT22;11875;49.356;2.718;2023-06-05T06:48:26;17.40;99.90
23405;DHT22;11875;49.356;2.718;2023-06-05T06:50:52;17.50;99.90
23405;DHT22;11875;49.356;2.718;2023-06-05T06:53:18;17.40;99.90
23405;DHT22;11875;49.356;2.718;2023-06-05T06:55:44;17.60;99.90
23405;DHT22;11875;49.356;2.718;2023-06-05T06:58:10;17.50;99.90
23405;DHT22;11875;49.356;2.718;2023-06-05T07:00:35;17.60;99.90
23405;DHT22;11875;49.356;2.718;2023-06-05T07:03:01;17.70;99.90
23405;DHT22;11875;49.356;2.718;2023-06-05T07:05:27;18.00;99.90
23405;DHT22;11875;49.356;2.718;2023-06-05T07:07:53;18.30;99.90
23405;DHT22;11875;49.356;2.718;2023-06-05T07:10:19;18.70;99.90
23405;DHT22;11875;49.356;2.718;2023-06-05T07:12:45;19.20;99.90
23405;DHT22;11875;49.356;2.718;2023-06-05T07:15:10;19.50;99.70
23405;DHT22;11875;49.356;2.718;2023-06-05T07:17:36;19.80;99.30
23405;DHT22;11875;49.356;2.718;2023-06-05T07:20:02;19.90;99.60
23405;DHT22;11875;49.356;2.718;2023-06-05T07:22:29;20.20;99.20
23405;DHT22;11875;49.356;2.718;2023-06-05T07:24:55;20.50;98.60
23405;DHT22;11875;49.356;2.718;2023-06-05T07:27:24;20.70;98.40
23405;DHT22;11875;49.356;2.718;2023-06-05T07:29:50;20.80;98.20
23405;DHT22;11875;49.356;2.718;2023-06-05T07:32:18;21.00;97.90
23405;DHT22;11875;49.356;2.718;2023-06-05T07:34:44;21.10;97.70
23405;DHT22;11875;49.356;2.718;2023-06-05T07:37:09;21.20;97.70
23405;DHT22;11875;49.356;2.718;2023-06-05T07:39:35;21.40;97.60
23405;DHT22;11875;49.356;2.718;2023-06-05T07:42:01;21.40;97.10
23405;DHT22;11875;49.356;2.718;2023-06-05T07:44:27;21.30;96.90
23405;DHT22;11875;49.356;2.718;2023-06-05T07:46:52;21.40;97.10
23405;DHT22;11875;49.356;2.718;2023-06-05T07:49:18;21.60;97.40
23405;DHT22;11875;49.356;2.718;2023-06-05T07:51:45;21.80;97.00
23405;DHT22;11875;49.356;2.718;2023-06-05T07:54:13;21.90;96.50
23405;DHT22;11875;49.356;2.718;2023-06-05T07:56:40;21.80;96.70
23405;DHT22;11875;49.356;2.718;2023-06-05T07:59:07;21.90;96.60
23405;DHT22;11875;49.356;2.718;2023-06-05T08:01:34;22.20;96.90
23405;DHT22;11875;49.356;2.718;2023-06-05T08:04:04;22.30;96.30
23405;DHT22;11875;49.356;2.718;2023-06-05T08:06:30;22.50;96.30
23405;DHT22;11875;49.356;2.718;2023-06-05T08:09:00;22.70;96.00
23405;DHT22;11875;49.356;2.718;2023-06-05T08:11:27;22.80;95.90
23405;DHT22;11875;49.356;2.718;2023-06-05T08:13:54;22.80;95.90
23405;DHT22;11875;49.356;2.718;2023-06-05T08:16:20;22.80;95.30
23405;DHT22;11875;49.356;2.718;2023-06-05T08:18:46;23.00;95.50
23405;DHT22;11875;49.356;2.718;2023-06-05T08:21:12;23.10;95.40
23405;DHT22;11875;49.356;2.718;2023-06-05T08:23:37;23.20;95.40
23405;DHT22;11875;49.356;2.718;2023-06-05T08:26:03;23.40;94.90
23405;DHT22;11875;49.356;2.718;2023-06-05T08:28:37;23.10;95.00
23405;DHT22;11875;49.356;2.718;2023-06-05T08:31:03;23.10;95.30
23405;DHT22;11875;49.356;2.718;2023-06-05T08:33:35;23.30;95.20
23405;DHT22;11875;49.356;2.718;2023-06-05T08:36:00;23.40;95.10
23405;DHT22;11875;49.356;2.718;2023-06-05T08:38:27;23.30;95.10
23405;DHT22;11875;49.356;2.718;2023-06-05T08:41:00;23.30;95.20
23405;DHT22;11875;49.356;2.718;2023-06-05T08:43:27;23.40;95.80
23405;DHT22;11875;49.356;2.718;2023-06-05T08:45:55;23.70;95.50
23405;DHT22;11875;49.356;2.718;2023-06-05T08:48:21;23.70;94.90
23405;DHT22;11875;49.356;2.718;2023-06-05T08:50:50;23.90;94.60
23405;DHT22;11875;49.356;2.718;2023-06-05T08:53:18;24.00;94.40
23405;DHT22;11875;49.356;2.718;2023-06-05T08:55:47;23.90;94.10
23405;DHT22;11875;49.356;2.718;2023-06-05T08:58:13;24.00;94.00
23405;DHT22;11875;49.356;2.718;2023-06-05T09:00:39;24.10;94.50
23405;DHT22;11875;49.356;2.718;2023-06-05T09:03:05;24.40;94.10
23405;DHT22;11875;49.356;2.718;2023-06-05T09:05:31;24.50;93.90
23405;DHT22;11875;49.356;2.718;2023-06-05T09:07:58;24.60;93.50
23405;DHT22;11875;49.356;2.718;2023-06-05T09:10:28;24.60;93.50
23405;DHT22;11875;49.356;2.718;2023-06-05T09:12:58;24.70;93.70
23405;DHT22;11875;49.356;2.718;2023-06-05T09:15:28;24.70;94.00
23405;DHT22;11875;49.356;2.718;2023-06-05T09:18:10;24.80;94.30
23405;DHT22;11875;49.356;2.718;2023-06-05T09:20:43;25.00;94.20
23405;DHT22;11875;49.356;2.718;2023-06-05T09:23:31;25.10;94.10
23405;DHT22;11875;49.356;2.718;2023-06-05T09:25:59;25.20;94.40
23405;DHT22;11875;49.356;2.718;2023-06-05T09:28:25;25.30;93.70
23405;DHT22;11875;49.356;2.718;2023-06-05T09:33:24;25.40;93.50
23405;DHT22;11875;49.356;2.718;2023-06-05T09:38:31;25.40;93.40
23405;DHT22;11875;49.356;2.718;2023-06-05T09:41:07;25.50;93.80
23405;DHT22;11875;49.356;2.718;2023-06-05T09:43:33;25.50;94.00
23405;DHT22;11875;49.356;2.718;2023-06-05T09:46:05;25.40;93.60
23405;DHT22;11875;49.356;2.718;2023-06-05T09:48:31;25.40;93.20
23405;DHT22;11875;49.356;2.718;2023-06-05T09:53:44;25.40;93.60
23405;DHT22;11875;49.356;2.718;2023-06-05T09:56:15;25.40;93.50
23405;DHT22;11875;49.356;2.718;2023-06-05T09:58:48;25.60;92.90
23405;DHT22;11875;49.356;2.718;2023-06-05T10:01:19;25.50;93.10
23405;DHT22;11875;49.356;2.718;2023-06-05T10:03:59;25.50;93.20
23405;DHT22;11875;49.356;2.718;2023-06-05T10:06:27;25.40;93.60
23405;DHT22;11875;49.356;2.718;2023-06-05T10:08:53;25.50;93.10
23405;DHT22;11875;49.356;2.718;2023-06-05T10:11:22;25.60;93.10
23405;DHT22;11875;49.356;2.718;2023-06-05T10:13:48;25.70;92.60
23405;DHT22;11875;49.356;2.718;2023-06-05T10:16:17;25.70;92.80
23405;DHT22;11875;49.356;2.718;2023-06-05T10:18:49;25.70;92.30
23405;DHT22;11875;49.356;2.718;2023-06-05T10:21:15;25.80;92.50
23405;DHT22;11875;49.356;2.718;2023-06-05T10:23:52;26.00;92.20
23405;DHT22;11875;49.356;2.718;2023-06-05T10:26:40;26.00;91.90
23405;DHT22;11875;49.356;2.718;2023-06-05T10:32:07;26.10;92.30
23405;DHT22;11875;49.356;2.718;2023-06-05T10:34:48;26.00;92.70
23405;DHT22;11875;49.356;2.718;2023-06-05T10:37:25;26.10;92.40
23405;DHT22;11875;49.356;2.718;2023-06-05T10:39:54;26.20;92.10
23405;DHT22;11875;49.356;2.718;2023-06-05T10:42:26;26.40;92.10
23405;DHT22;11875;49.356;2.718;2023-06-05T10:44:52;26.50;90.90
23405;DHT22;11875;49.356;2.718;2023-06-05T10:52:48;26.20;92.00
23405;DHT22;11875;49.356;2.718;2023-06-05T10:55:14;26.30;91.40
23405;DHT22;11875;49.356;2.718;2023-06-05T11:00:27;26.30;91.40
23405;DHT22;11875;49.356;2.718;2023-06-05T11:02:56;26.30;91.40
23405;DHT22;11875;49.356;2.718;2023-06-05T11:05:23;26.40;91.80
23405;DHT22;11875;49.356;2.718;2023-06-05T11:11:02;26.40;91.30
23405;DHT22;11875;49.356;2.718;2023-06-05T11:13:54;26.40;91.90
23405;DHT22;11875;49.356;2.718;2023-06-05T11:16:31;26.60;91.40
23405;DHT22;11875;49.356;2.718;2023-06-05T11:22:08;26.90;91.00
23405;DHT22;11875;49.356;2.718;2023-06-05T11:24:35;27.00;90.90
23405;DHT22;11875;49.356;2.718;2023-06-05T11:27:01;27.00;90.60
23405;DHT22;11875;49.356;2.718;2023-06-05T11:29:27;27.10;90.90
23405;DHT22;11875;49.356;2.718;2023-06-05T11:31:54;27.10;91.10
23405;DHT22;11875;49.356;2.718;2023-06-05T11:34:20;27.10;90.00
23405;DHT22;11875;49.356;2.718;2023-06-05T11:36:46;27.10;89.80
23405;DHT22;11875;49.356;2.718;2023-06-05T11:39:13;26.90;88.80
23405;DHT22;11875;49.356;2.718;2023-06-05T11:41:49;27.00;88.50
23405;DHT22;11875;49.356;2.718;2023-06-05T11:44:32;27.00;89.20
23405;DHT22;11875;49.356;2.718;2023-06-05T11:46:57;26.90;88.10
23405;DHT22;11875;49.356;2.718;2023-06-05T11:49:27;27.00;86.80
23405;DHT22;11875;49.356;2.718;2023-06-05T11:51:54;27.10;86.20
23405;DHT22;11875;49.356;2.718;2023-06-05T11:54:30;27.10;83.80
23405;DHT22;11875;49.356;2.718;2023-06-05T11:56:58;27.10;85.20
23405;DHT22;11875;49.356;2.718;2023-06-05T11:59:24;27.20;87.50
23405;DHT22;11875;49.356;2.718;2023-06-05T12:01:50;27.20;84.80
23405;DHT22;11875;49.356;2.718;2023-06-05T12:04:19;27.40;87.10
23405;DHT22;11875;49.356;2.718;2023-06-05T12:06:46;27.50;87.60
23405;DHT22;11875;49.356;2.718;2023-06-05T12:09:17;27.60;86.10
23405;DHT22;11875;49.356;2.718;2023-06-05T12:11:43;27.70;85.10
23405;DHT22;11875;49.356;2.718;2023-06-05T12:14:27;27.60;85.40
23405;DHT22;11875;49.356;2.718;2023-06-05T12:16:53;27.50;82.70
23405;DHT22;11875;49.356;2.718;2023-06-05T12:19:19;27.30;82.30
23405;DHT22;11875;49.356;2.718;2023-06-05T12:21:49;27.30;83.90
23405;DHT22;11875;49.356;2.718;2023-06-05T12:24:25;27.70;82.90
23405;DHT22;11875;49.356;2.718;2023-06-05T12:26:55;27.50;82.10
23405;DHT22;11875;49.356;2.718;2023-06-05T12:29:25;27.60;83.20
23405;DHT22;11875;49.356;2.718;2023-06-05T12:31:52;27.70;83.20
23405;DHT22;11875;49.356;2.718;2023-06-05T12:34:17;27.70;84.00
23405;DHT22;11875;49.356;2.718;2023-06-05T12:36:44;27.80;84.30
23405;DHT22;11875;49.356;2.718;2023-06-05T12:39:11;27.40;82.60
23405;DHT22;11875;49.356;2.718;2023-06-05T12:41:37;27.80;83.20
23405;DHT22;11875;49.356;2.718;2023-06-05T12:44:04;27.90;82.00
23405;DHT22;11875;49.356;2.718;2023-06-05T12:46:34;27.70;79.60
23405;DHT22;11875;49.356;2.718;2023-06-05T12:49:00;27.80;79.60
23405;DHT22;11875;49.356;2.718;2023-06-05T12:51:27;27.60;81.90
23405;DHT22;11875;49.356;2.718;2023-06-05T12:53:54;27.70;81.20
23405;DHT22;11875;49.356;2.718;2023-06-05T12:56:21;27.70;81.10
23405;DHT22;11875;49.356;2.718;2023-06-05T12:58:51;27.80;81.80
23405;DHT22;11875;49.356;2.718;2023-06-05T13:01:17;27.80;81.70
23405;DHT22;11875;49.356;2.718;2023-06-05T13:03:43;27.90;78.30
23405;DHT22;11875;49.356;2.718;2023-06-05T13:06:10;27.90;80.50
23405;DHT22;11875;49.356;2.718;2023-06-05T13:08:35;28.00;80.40
23405;DHT22;11875;49.356;2.718;2023-06-05T13:11:01;28.00;79.50
23405;DHT22;11875;49.356;2.718;2023-06-05T13:13:26;27.80;80.00
23405;DHT22;11875;49.356;2.718;2023-06-05T13:15:53;27.80;79.80
23405;DHT22;11875;49.356;2.718;2023-06-05T13:18:19;27.90;80.90
23405;DHT22;11875;49.356;2.718;2023-06-05T13:20:44;28.10;81.90
23405;DHT22;11875;49.356;2.718;2023-06-05T13:23:10;28.20;81.10
23405;DHT22;11875;49.356;2.718;2023-06-05T13:25:37;28.20;80.80
23405;DHT22;11875;49.356;2.718;2023-06-05T13:28:02;28.20;80.10
23405;DHT22;11875;49.356;2.718;2023-06-05T13:30:29;28.20;80.50
23405;DHT22;11875;49.356;2.718;2023-06-05T13:32:55;28.30;80.50
23405;DHT22;11875;49.356;2.718;2023-06-05T13:35:20;28.20;80.60
23405;DHT22;11875;49.356;2.718;2023-06-05T13:37:46;28.30;79.30
23405;DHT22;11875;49.356;2.718;2023-06-05T13:40:14;28.20;80.30
23405;DHT22;11875;49.356;2.718;2023-06-05T13:42:40;28.20;80.90
23405;DHT22;11875;49.356;2.718;2023-06-05T13:45:06;28.30;80.80
23405;DHT22;11875;49.356;2.718;2023-06-05T13:47:32;28.30;79.70
23405;DHT22;11875;49.356;2.718;2023-06-05T13:49:58;28.20;79.40
23405;DHT22;11875;49.356;2.718;2023-06-05T13:52:23;28.30;79.50
23405;DHT22;11875;49.356;2.718;2023-06-05T13:54:49;28.20;79.20
23405;DHT22;11875;49.356;2.718;2023-06-05T13:57:14;28.10;77.00
23405;DHT22;11875;49.356;2.718;2023-06-05T13:59:42;28.20;78.20
23405;DHT22;11875;49.356;2.718;2023-06-05T14:02:08;28.30;77.40
23405;DHT22;11875;49.356;2.718;2023-06-05T14:04:34;28.40;76.50
23405;DHT22;11875;49.356;2.718;2023-06-05T14:07:00;28.50;76.60
23405;DHT22;11875;49.356;2.718;2023-06-05T14:09:26;28.60;77.60
23405;DHT22;11875;49.356;2.718;2023-06-05T14:11:53;28.60;76.60
23405;DHT22;11875;49.356;2.718;2023-06-05T14:14:18;28.70;78.10
23405;DHT22;11875;49.356;2.718;2023-06-05T14:16:44;28.60;77.00
23405;DHT22;11875;49.356;2.718;2023-06-05T14:19:10;28.60;75.90
23405;DHT22;11875;49.356;2.718;2023-06-05T14:21:35;28.50;76.80
23405;DHT22;11875;49.356;2.718;2023-06-05T14:24:03;28.40;77.00
23405;DHT22;11875;49.356;2.718;2023-06-05T14:26:29;28.40;77.20
23405;DHT22;11875;49.356;2.718;2023-06-05T14:28:55;28.40;77.40
23405;DHT22;11875;49.356;2.718;2023-06-05T14:31:20;28.40;77.60
23405;DHT22;11875;49.356;2.718;2023-06-05T14:33:51;28.40;79.00
23405;DHT22;11875;49.356;2.718;2023-06-05T14:36:16;28.50;76.20
23405;DHT22;11875;49.356;2.718;2023-06-05T14:38:42;28.50;76.30
23405;DHT22;11875;49.356;2.718;2023-06-05T14:41:07;28.60;76.20
23405;DHT22;11875;49.356;2.718;2023-06-05T14:43:33;28.70;76.40
23405;DHT22;11875;49.356;2.718;2023-06-05T14:45:59;28.80;77.90
23405;DHT22;11875;49.356;2.718;2023-06-05T14:48:26;29.00;77.20
23405;DHT22;11875;49.356;2.718;2023-06-05T14:50:51;29.10;77.30
23405;DHT22;11875;49.356;2.718;2023-06-05T14:53:18;29.10;76.50
23405;DHT22;11875;49.356;2.718;2023-06-05T14:55:44;29.10;75.80
23405;DHT22;11875;49.356;2.718;2023-06-05T14:58:10;29.00;75.00
23405;DHT22;11875;49.356;2.718;2023-06-05T15:00:36;28.80;76.40
23405;DHT22;11875;49.356;2.718;2023-06-05T15:03:03;28.70;76.80
23405;DHT22;11875;49.356;2.718;2023-06-05T15:05:28;28.80;77.80
23405;DHT22;11875;49.356;2.718;2023-06-05T15:07:54;28.80;77.60
23405;DHT22;11875;49.356;2.718;2023-06-05T15:10:20;29.00;77.10
23405;DHT22;11875;49.356;2.718;2023-06-05T15:12:46;29.00;76.90
23405;DHT22;11875;49.356;2.718;2023-06-05T15:15:11;29.00;76.80
23405;DHT22;11875;49.356;2.718;2023-06-05T15:17:37;29.10;76.80
23405;DHT22;11875;49.356;2.718;2023-06-05T15:20:04;29.10;75.30
23405;DHT22;11875;49.356;2.718;2023-06-05T15:22:31;28.80;75.80
23405;DHT22;11875;49.356;2.718;2023-06-05T15:24:57;28.80;74.60
23405;DHT22;11875;49.356;2.718;2023-06-05T15:27:22;28.60;75.00
23405;DHT22;11875;49.356;2.718;2023-06-05T15:29:48;28.60;75.70
23405;DHT22;11875;49.356;2.718;2023-06-05T15:32:14;28.50;75.60
23405;DHT22;11875;49.356;2.718;2023-06-05T15:34:40;28.40;76.30
23405;DHT22;11875;49.356;2.718;2023-06-05T15:37:06;28.50;77.00
23405;DHT22;11875;49.356;2.718;2023-06-05T15:39:32;28.40;76.50
23405;DHT22;11875;49.356;2.718;2023-06-05T15:41:58;28.50;76.50
23405;DHT22;11875;49.356;2.718;2023-06-05T15:44:24;28.60;75.90
23405;DHT22;11875;49.356;2.718;2023-06-05T15:46:49;28.60;75.30
23405;DHT22;11875;49.356;2.718;2023-06-05T15:49:15;28.50;75.70
23405;DHT22;11875;49.356;2.718;2023-06-05T15:51:41;28.50;73.50
23405;DHT22;11875;49.356;2.718;2023-06-05T15:54:06;28.40;74.90
23405;DHT22;11875;49.356;2.718;2023-06-05T15:56:33;28.40;74.60
23405;DHT22;11875;49.356;2.718;2023-06-05T15:58:59;28.50;74.80